createdAt,value
2018-10-01T00:00:05.298Z,15.90
2018-10-01T00:02:38.728Z,15.90
2018-10-01T00:05:12.128Z,15.90
2018-10-01T00:07:45.560Z,15.90
2018-10-01T00:10:18.972Z,15.90
2018-10-01T00:12:52.399Z,15.90
2018-10-01T00:15:25.805Z,15.90
2018-10-01T00:17:59.443Z,15.90
2018-10-01T00:20:38.253Z,15.80
2018-10-01T00:23:11.680Z,15.70
2018-10-01T00:25:45.092Z,15.80
2018-10-01T00:28:18.539Z,15.90
2018-10-01T00:30:51.972Z,16.00
2018-10-01T00:33:25.436Z,15.90
2018-10-01T00:35:59.026Z,15.90
2018-10-01T00:38:32.553Z,15.80
2018-10-01T00:41:06.196Z,15.80
2018-10-01T00:43:39.705Z,15.90
2018-10-01T00:46:15.160Z,15.70
2018-10-01T00:48:48.639Z,15.70
2018-10-01T00:51:22.092Z,15.80
2018-10-01T00:53:55.576Z,15.90
2018-10-01T00:56:29.024Z,15.80
2018-10-01T00:59:02.474Z,15.70
2018-10-01T01:01:35.939Z,15.70
2018-10-01T01:04:09.405Z,15.60
2018-10-01T01:06:42.841Z,15.60
2018-10-01T01:09:16.301Z,15.60
2018-10-01T01:11:49.746Z,15.50
2018-10-01T01:14:24.284Z,15.60
2018-10-01T01:16:57.736Z,15.50
2018-10-01T01:19:31.237Z,15.50
2018-10-01T01:22:04.705Z,15.50
2018-10-01T01:24:38.147Z,15.50
2018-10-01T01:27:11.612Z,15.40
2018-10-01T01:29:45.180Z,15.40
2018-10-01T01:32:18.633Z,15.40
2018-10-01T01:34:52.087Z,15.40
2018-10-01T01:37:25.524Z,15.40
2018-10-01T01:39:58.980Z,15.50
2018-10-01T01:42:32.439Z,15.50
2018-10-01T01:45:05.978Z,15.50
2018-10-01T01:47:39.452Z,15.40
2018-10-01T01:50:12.948Z,15.40
2018-10-01T01:52:46.468Z,15.30
2018-10-01T01:55:19.924Z,15.10
2018-10-01T01:57:53.377Z,15.10
